sensor_id;sensor_type;location;lat;lon;timestamp;P1;durP1;ratioP1;P2;durP2;ratioP2
7905;SDS011;13291;40.472;-3.878;2023-05-27T00:01:45;6.50;;;3.33;;
7905;SDS011;13291;40.472;-3.878;2023-05-27T00:04:12;5.90;;;3.00;;
7905;SDS011;13291;40.472;-3.878;2023-05-27T00:06:41;8.70;;;3.60;;
7905;SDS011;13291;40.472;-3.878;2023-05-27T00:09:08;4.83;;;3.33;;
7905;SDS011;13291;40.472;-3.878;2023-05-27T00:11:35;7.10;;;3.33;;
7905;SDS011;13291;40.472;-3.878;2023-05-27T00:14:02;10.60;;;3.17;;
7905;SDS011;13291;40.472;-3.878;2023-05-27T00:16:29;6.40;;;3.30;;
7905;SDS011;13291;40.472;-3.878;2023-05-27T00:18:56;4.93;;;3.73;;
7905;SDS011;13291;40.472;-3.878;2023-05-27T00:21:24;6.23;;;3.23;;
7905;SDS011;13291;40.472;-3.878;2023-05-27T00:23:52;5.23;;;3.10;;
7905;SDS011;13291;40.472;-3.878;2023-05-27T00:26:19;4.20;;;3.50;;
7905;SDS011;13291;40.472;-3.878;2023-05-27T00:28:46;7.10;;;3.30;;
7905;SDS011;13291;40.472;-3.878;2023-05-27T00:31:13;6.37;;;3.57;;
7905;SDS011;13291;40.472;-3.878;2023-05-27T00:33:41;6.80;;;3.87;;
7905;SDS011;13291;40.472;-3.878;2023-05-27T00:36:09;6.43;;;3.60;;
7905;SDS011;13291;40.472;-3.878;2023-05-27T00:38:36;5.93;;;3.20;;
7905;SDS011;13291;40.472;-3.878;2023-05-27T00:41:04;5.67;;;3.37;;
7905;SDS011;13291;40.472;-3.878;2023-05-27T00:43:31;6.67;;;3.30;;
7905;SDS011;13291;40.472;-3.878;2023-05-27T00:45:58;8.10;;;3.43;;
7905;SDS011;13291;40.472;-3.878;2023-05-27T00:48:25;5.60;;;3.73;;
7905;SDS011;13291;40.472;-3.878;2023-05-27T00:50:52;6.40;;;3.50;;
7905;SDS011;13291;40.472;-3.878;2023-05-27T00:53:19;6.43;;;3.20;;
7905;SDS011;13291;40.472;-3.878;2023-05-27T00:55:47;8.90;;;3.60;;
7905;SDS011;13291;40.472;-3.878;2023-05-27T00:58:15;7.57;;;3.40;;
7905;SDS011;13291;40.472;-3.878;2023-05-27T01:00:44;6.93;;;3.40;;
7905;SDS011;13291;40.472;-3.878;2023-05-27T01:03:10;6.90;;;3.50;;
7905;SDS011;13291;40.472;-3.878;2023-05-27T01:05:37;6.70;;;3.27;;
7905;SDS011;13291;40.472;-3.878;2023-05-27T01:08:10;8.97;;;3.47;;
7905;SDS011;13291;40.472;-3.878;2023-05-27T01:10:46;6.67;;;3.40;;
7905;SDS011;13291;40.472;-3.878;2023-05-27T01:13:18;7.23;;;3.20;;
7905;SDS011;13291;40.472;-3.878;2023-05-27T01:15:53;8.03;;;3.17;;
7905;SDS011;13291;40.472;-3.878;2023-05-27T01:18:25;5.17;;;3.90;;
7905;SDS011;13291;40.472;-3.878;2023-05-27T01:20:56;5.17;;;2.87;;
7905;SDS011;13291;40.472;-3.878;2023-05-27T01:23:28;5.83;;;3.23;;
7905;SDS011;13291;40.472;-3.878;2023-05-27T01:25:55;6.90;;;3.37;;
7905;SDS011;13291;40.472;-3.878;2023-05-27T01:28:22;4.70;;;3.63;;
7905;SDS011;13291;40.472;-3.878;2023-05-27T01:30:50;7.63;;;3.70;;
7905;SDS011;13291;40.472;-3.878;2023-05-27T01:33:21;5.83;;;3.67;;
7905;SDS011;13291;40.472;-3.878;2023-05-27T01:35:57;5.90;;;3.30;;
7905;SDS011;13291;40.472;-3.878;2023-05-27T01:38:29;5.20;;;3.63;;
7905;SDS011;13291;40.472;-3.878;2023-05-27T01:40:59;7.30;;;3.47;;
7905;SDS011;13291;40.472;-3.878;2023-05-27T01:43:27;7.60;;;3.67;;
7905;SDS011;13291;40.472;-3.878;2023-05-27T01:45:54;8.47;;;3.87;;
7905;SDS011;13291;40.472;-3.878;2023-05-27T01:48:21;7.30;;;3.73;;
7905;SDS011;13291;40.472;-3.878;2023-05-27T01:50:48;8.13;;;4.07;;
7905;SDS011;13291;40.472;-3.878;2023-05-27T01:53:15;9.07;;;4.00;;
7905;SDS011;13291;40.472;-3.878;2023-05-27T01:55:43;7.50;;;3.90;;
7905;SDS011;13291;40.472;-3.878;2023-05-27T01:58:10;8.40;;;3.43;;
7905;SDS011;13291;40.472;-3.878;2023-05-27T02:00:38;8.70;;;3.83;;
7905;SDS011;13291;40.472;-3.878;2023-05-27T02:03:05;7.43;;;3.87;;
7905;SDS011;13291;40.472;-3.878;2023-05-27T02:05:32;3.80;;;3.00;;
7905;SDS011;13291;40.472;-3.878;2023-05-27T02:08:01;9.37;;;3.70;;
7905;SDS011;13291;40.472;-3.878;2023-05-27T02:10:28;8.87;;;3.50;;
7905;SDS011;13291;40.472;-3.878;2023-05-27T02:12:56;10.40;;;4.00;;
7905;SDS011;13291;40.472;-3.878;2023-05-27T02:15:23;4.70;;;3.53;;
7905;SDS011;13291;40.472;-3.878;2023-05-27T02:17:51;9.17;;;4.67;;
7905;SDS011;13291;40.472;-3.878;2023-05-27T02:20:20;10.47;;;4.30;;
7905;SDS011;13291;40.472;-3.878;2023-05-27T02:22:48;7.00;;;3.23;;
7905;SDS011;13291;40.472;-3.878;2023-05-27T02:25:16;11.50;;;3.40;;
7905;SDS011;13291;40.472;-3.878;2023-05-27T02:27:43;10.80;;;3.73;;
7905;SDS011;13291;40.472;-3.878;2023-05-27T02:30:15;8.83;;;3.77;;
7905;SDS011;13291;40.472;-3.878;2023-05-27T02:32:42;6.47;;;3.50;;
7905;SDS011;13291;40.472;-3.878;2023-05-27T02:35:09;5.30;;;3.87;;
7905;SDS011;13291;40.472;-3.878;2023-05-27T02:37:38;7.30;;;3.80;;
7905;SDS011;13291;40.472;-3.878;2023-05-27T02:40:06;6.57;;;3.70;;
7905;SDS011;13291;40.472;-3.878;2023-05-27T02:42:34;7.60;;;3.53;;
7905;SDS011;13291;40.472;-3.878;2023-05-27T02:45:02;7.90;;;4.00;;
7905;SDS011;13291;40.472;-3.878;2023-05-27T02:47:31;6.73;;;3.40;;
7905;SDS011;13291;40.472;-3.878;2023-05-27T02:49:57;6.80;;;3.53;;
7905;SDS011;13291;40.472;-3.878;2023-05-27T02:52:24;8.30;;;3.20;;
7905;SDS011;13291;40.472;-3.878;2023-05-27T02:54:51;9.13;;;4.00;;
7905;SDS011;13291;40.472;-3.878;2023-05-27T02:57:18;8.23;;;3.90;;
7905;SDS011;13291;40.472;-3.878;2023-05-27T02:59:45;6.27;;;3.80;;
7905;SDS011;13291;40.472;-3.878;2023-05-27T03:02:12;4.30;;;3.50;;
7905;SDS011;13291;40.472;-3.878;2023-05-27T03:04:40;7.20;;;4.30;;
7905;SDS011;13291;40.472;-3.878;2023-05-27T03:07:07;13.00;;;4.00;;
7905;SDS011;13291;40.472;-3.878;2023-05-27T03:09:34;6.23;;;4.03;;
7905;SDS011;13291;40.472;-3.878;2023-05-27T03:12:01;11.73;;;4.60;;
7905;SDS011;13291;40.472;-3.878;2023-05-27T03:14:28;7.80;;;3.77;;
7905;SDS011;13291;40.472;-3.878;2023-05-27T03:16:55;7.23;;;3.80;;
7905;SDS011;13291;40.472;-3.878;2023-05-27T03:19:22;7.50;;;4.00;;
7905;SDS011;13291;40.472;-3.878;2023-05-27T03:21:50;8.10;;;4.10;;
7905;SDS011;13291;40.472;-3.878;2023-05-27T03:24:17;5.70;;;4.20;;
7905;SDS011;13291;40.472;-3.878;2023-05-27T03:26:44;5.73;;;3.57;;
7905;SDS011;13291;40.472;-3.878;2023-05-27T03:29:11;9.30;;;3.50;;
7905;SDS011;13291;40.472;-3.878;2023-05-27T03:31:38;12.67;;;3.80;;
7905;SDS011;13291;40.472;-3.878;2023-05-27T03:34:05;9.60;;;3.80;;
7905;SDS011;13291;40.472;-3.878;2023-05-27T03:36:32;13.73;;;4.40;;
7905;SDS011;13291;40.472;-3.878;2023-05-27T03:39:01;9.80;;;4.20;;
7905;SDS011;13291;40.472;-3.878;2023-05-27T03:41:29;8.87;;;4.17;;
7905;SDS011;13291;40.472;-3.878;2023-05-27T03:43:56;7.57;;;4.20;;
7905;SDS011;13291;40.472;-3.878;2023-05-27T03:46:23;8.90;;;4.50;;
7905;SDS011;13291;40.472;-3.878;2023-05-27T03:48:50;16.83;;;4.83;;
7905;SDS011;13291;40.472;-3.878;2023-05-27T03:51:17;16.10;;;4.80;;
7905;SDS011;13291;40.472;-3.878;2023-05-27T03:53:44;11.40;;;4.00;;
7905;SDS011;13291;40.472;-3.878;2023-05-27T03:56:12;5.73;;;4.10;;
7905;SDS011;13291;40.472;-3.878;2023-05-27T03:58:39;8.67;;;4.43;;
7905;SDS011;13291;40.472;-3.878;2023-05-27T04:01:06;4.83;;;3.77;;
7905;SDS011;13291;40.472;-3.878;2023-05-27T04:03:33;4.93;;;3.47;;
7905;SDS011;13291;40.472;-3.878;2023-05-27T04:06:00;8.83;;;4.13;;
7905;SDS011;13291;40.472;-3.878;2023-05-27T04:08:27;7.87;;;4.50;;
7905;SDS011;13291;40.472;-3.878;2023-05-27T04:10:54;9.83;;;4.70;;
7905;SDS011;13291;40.472;-3.878;2023-05-27T04:13:23;8.43;;;4.73;;
7905;SDS011;13291;40.472;-3.878;2023-05-27T04:15:49;7.07;;;4.23;;
7905;SDS011;13291;40.472;-3.878;2023-05-27T04:18:17;10.13;;;4.20;;
7905;SDS011;13291;40.472;-3.878;2023-05-27T04:20:44;8.13;;;4.57;;
7905;SDS011;13291;40.472;-3.878;2023-05-27T04:23:12;7.50;;;4.07;;
7905;SDS011;13291;40.472;-3.878;2023-05-27T04:25:39;5.80;;;4.30;;
7905;SDS011;13291;40.472;-3.878;2023-05-27T04:28:06;8.20;;;4.10;;
7905;SDS011;13291;40.472;-3.878;2023-05-27T04:30:36;6.40;;;4.20;;
7905;SDS011;13291;40.472;-3.878;2023-05-27T04:33:05;11.37;;;4.53;;
7905;SDS011;13291;40.472;-3.878;2023-05-27T04:35:32;10.23;;;4.27;;
7905;SDS011;13291;40.472;-3.878;2023-05-27T04:37:59;10.33;;;4.20;;
7905;SDS011;13291;40.472;-3.878;2023-05-27T04:40:27;9.17;;;4.20;;
7905;SDS011;13291;40.472;-3.878;2023-05-27T04:42:55;8.60;;;4.20;;
7905;SDS011;13291;40.472;-3.878;2023-05-27T04:45:21;9.20;;;3.80;;
7905;SDS011;13291;40.472;-3.878;2023-05-27T04:47:50;8.63;;;4.33;;
7905;SDS011;13291;40.472;-3.878;2023-05-27T04:50:17;12.50;;;4.90;;
7905;SDS011;13291;40.472;-3.878;2023-05-27T04:52:44;7.87;;;4.10;;
7905;SDS011;13291;40.472;-3.878;2023-05-27T04:55:10;9.80;;;4.40;;
7905;SDS011;13291;40.472;-3.878;2023-05-27T04:57:37;9.40;;;4.67;;
7905;SDS011;13291;40.472;-3.878;2023-05-27T05:00:06;7.17;;;4.10;;
7905;SDS011;13291;40.472;-3.878;2023-05-27T05:02:49;8.90;;;4.77;;
7905;SDS011;13291;40.472;-3.878;2023-05-27T05:05:26;9.97;;;4.67;;
7905;SDS011;13291;40.472;-3.878;2023-05-27T05:07:53;7.77;;;4.57;;
7905;SDS011;13291;40.472;-3.878;2023-05-27T05:10:20;9.60;;;4.67;;
7905;SDS011;13291;40.472;-3.878;2023-05-27T05:12:47;12.20;;;5.57;;
7905;SDS011;13291;40.472;-3.878;2023-05-27T05:15:14;8.47;;;5.00;;
7905;SDS011;13291;40.472;-3.878;2023-05-27T05:17:41;10.20;;;4.50;;
7905;SDS011;13291;40.472;-3.878;2023-05-27T05:20:10;11.27;;;4.43;;
7905;SDS011;13291;40.472;-3.878;2023-05-27T05:22:38;10.03;;;4.90;;
7905;SDS011;13291;40.472;-3.878;2023-05-27T05:25:05;10.27;;;4.97;;
7905;SDS011;13291;40.472;-3.878;2023-05-27T05:27:32;8.77;;;3.77;;
7905;SDS011;13291;40.472;-3.878;2023-05-27T05:29:59;8.50;;;4.10;;
7905;SDS011;13291;40.472;-3.878;2023-05-27T05:32:26;8.90;;;4.70;;
7905;SDS011;13291;40.472;-3.878;2023-05-27T05:34:53;8.43;;;4.37;;
7905;SDS011;13291;40.472;-3.878;2023-05-27T05:37:21;16.17;;;4.30;;
7905;SDS011;13291;40.472;-3.878;2023-05-27T05:39:49;7.37;;;4.40;;
7905;SDS011;13291;40.472;-3.878;2023-05-27T05:42:15;5.83;;;3.90;;
7905;SDS011;13291;40.472;-3.878;2023-05-27T05:44:42;9.50;;;4.63;;
7905;SDS011;13291;40.472;-3.878;2023-05-27T05:47:09;9.20;;;4.67;;
7905;SDS011;13291;40.472;-3.878;2023-05-27T05:49:36;10.70;;;4.37;;
7905;SDS011;13291;40.472;-3.878;2023-05-27T05:52:03;10.80;;;4.50;;
7905;SDS011;13291;40.472;-3.878;2023-05-27T05:54:32;8.17;;;4.07;;
7905;SDS011;13291;40.472;-3.878;2023-05-27T05:56:59;9.63;;;4.43;;
7905;SDS011;13291;40.472;-3.878;2023-05-27T05:59:27;7.43;;;3.83;;
7905;SDS011;13291;40.472;-3.878;2023-05-27T06:01:54;9.47;;;4.47;;
7905;SDS011;13291;40.472;-3.878;2023-05-27T06:04:21;7.20;;;4.40;;
7905;SDS011;13291;40.472;-3.878;2023-05-27T06:06:48;7.97;;;4.10;;
7905;SDS011;13291;40.472;-3.878;2023-05-27T06:09:15;11.67;;;4.60;;
7905;SDS011;13291;40.472;-3.878;2023-05-27T06:11:43;11.20;;;4.60;;
7905;SDS011;13291;40.472;-3.878;2023-05-27T06:14:10;12.07;;;5.03;;
7905;SDS011;13291;40.472;-3.878;2023-05-27T06:16:37;9.40;;;4.37;;
7905;SDS011;13291;40.472;-3.878;2023-05-27T06:19:05;9.97;;;4.27;;
7905;SDS011;13291;40.472;-3.878;2023-05-27T06:21:32;15.50;;;4.13;;
7905;SDS011;13291;40.472;-3.878;2023-05-27T06:23:59;9.20;;;4.80;;
7905;SDS011;13291;40.472;-3.878;2023-05-27T06:26:26;8.50;;;4.20;;
7905;SDS011;13291;40.472;-3.878;2023-05-27T06:28:55;9.50;;;4.30;;
7905;SDS011;13291;40.472;-3.878;2023-05-27T06:31:21;7.90;;;4.40;;
